Time;durP1;ratioP1;P1;durP2;ratioP2;P2;SDS_P1;SDS_P2;PMS_P1;PMS_P2;Temp;Humidity;BMP_temperature;BMP_pressure;BME280_temperature;BME280_humidity;BME280_pressure;Samples;Min_cycle;Max_cycle;Signal;HPM_P1;HPM_P2
2022/06/06 00:00:10;;;;;;;;;;;15.50;99.90;;;;;;5079673;28;19928;-75
2022/06/06 00:02:44;;;;;;;;;;;15.50;99.90;;;;;;5086414;28;19934;-73
2022/06/06 00:05:18;;;;;;;;;;;15.50;99.90;;;;;;5075987;28;20397;-72
2022/06/06 00:07:50;;;;;;;;;;;15.40;99.90;;;;;;5101791;28;20396;-73
2022/06/06 00:10:22;;;;;;;;;;;15.40;99.90;;;;;;5099952;28;19925;-73
2022/06/06 00:12:53;;;;;;;;;;;15.40;99.90;;;;;;5076871;28;20406;-73
2022/06/06 00:15:25;;;;;;;;;;;15.40;99.90;;;;;;5073201;28;19971;-73
2022/06/06 00:17:56;;;;;;;;;;;15.30;99.90;;;;;;5083420;28;19932;-73
2022/06/06 00:20:30;;;;;;;;;;;15.30;99.90;;;;;;5076934;28;19928;-73
2022/06/06 00:23:02;;;;;;;;;;;15.30;99.90;;;;;;5063998;28;19925;-72
2022/06/06 00:25:33;;;;;;;;;;;15.30;99.90;;;;;;5087670;28;19924;-72
2022/06/06 00:28:05;;;;;;;;;;;15.30;99.90;;;;;;5083704;28;19928;-72
2022/06/06 00:30:37;;;;;;;;;;;15.30;99.90;;;;;;5087452;28;19928;-73
2022/06/06 00:36:00;;;;;;;;;;;15.30;99.90;;;;;;5083023;28;19924;-72
2022/06/06 00:38:32;;;;;;;;;;;15.30;99.90;;;;;;5082281;28;19928;-72
2022/06/06 00:41:04;;;;;;;;;;;15.30;99.90;;;;;;5079245;28;19931;-72
2022/06/06 00:43:36;;;;;;;;;;;15.20;99.90;;;;;;5072832;28;20389;-72
2022/06/06 00:46:08;;;;;;;;;;;15.30;99.90;;;;;;5095985;28;19924;-72
2022/06/06 00:48:40;;;;;;;;;;;15.20;99.90;;;;;;5055648;28;19935;-72
2022/06/06 00:51:14;;;;;;;;;;;15.20;99.90;;;;;;5098216;28;19935;-72
2022/06/06 00:53:48;;;;;;;;;;;15.20;99.90;;;;;;5096543;28;19935;-72
2022/06/06 00:56:33;;;;;;;;;;;15.30;99.90;;;;;;5080414;28;19932;-72
2022/06/06 00:59:16;;;;;;;;;;;15.30;99.90;;;;;;5090025;28;19925;-72
2022/06/06 01:01:51;;;;;;;;;;;15.30;99.90;;;;;;5076100;28;19954;-72
2022/06/06 01:04:24;;;;;;;;;;;15.30;99.90;;;;;;5075800;28;19931;-72
2022/06/06 01:06:56;;;;;;;;;;;15.30;99.90;;;;;;5073430;28;19929;-72
2022/06/06 01:09:29;;;;;;;;;;;15.20;99.90;;;;;;5078308;28;19939;-73
2022/06/06 01:12:03;;;;;;;;;;;15.20;99.90;;;;;;5071210;28;19930;-73
2022/06/06 01:14:37;;;;;;;;;;;15.20;99.90;;;;;;5080132;28;19968;-72
2022/06/06 01:17:22;;;;;;;;;;;15.20;99.90;;;;;;5071931;28;19929;-72
2022/06/06 01:20:13;;;;;;;;;;;15.20;99.90;;;;;;5077925;28;19935;-72
2022/06/06 01:22:50;;;;;;;;;;;15.20;99.90;;;;;;5071562;28;19924;-72
2022/06/06 01:25:28;;;;;;;;;;;15.20;99.90;;;;;;5061684;28;19928;-74
2022/06/06 01:28:06;;;;;;;;;;;15.10;99.90;;;;;;5088944;28;20299;-72
2022/06/06 01:30:41;;;;;;;;;;;15.10;99.90;;;;;;5094542;28;19932;-72
2022/06/06 01:33:14;;;;;;;;;;;15.10;99.90;;;;;;5062425;28;19924;-73
2022/06/06 01:35:47;;;;;;;;;;;15.10;99.90;;;;;;5059158;28;19932;-72
2022/06/06 01:38:21;;;;;;;;;;;15.10;99.90;;;;;;5084753;28;20038;-72
2022/06/06 01:41:01;;;;;;;;;;;15.10;99.90;;;;;;5060346;28;19935;-72
2022/06/06 01:43:40;;;;;;;;;;;15.00;99.90;;;;;;5082123;28;19925;-72
2022/06/06 01:46:15;;;;;;;;;;;15.00;99.90;;;;;;5079855;28;19931;-73
2022/06/06 01:48:48;;;;;;;;;;;15.00;99.90;;;;;;5082211;28;20498;-72
2022/06/06 01:51:22;;;;;;;;;;;14.90;99.90;;;;;;5075580;28;19963;-73
2022/06/06 01:53:54;;;;;;;;;;;14.90;99.90;;;;;;5080200;28;20405;-71
2022/06/06 01:56:27;;;;;;;;;;;14.90;99.90;;;;;;5067198;28;20333;-73
2022/06/06 01:58:58;;;;;;;;;;;14.80;99.90;;;;;;5083065;28;20021;-72
2022/06/06 02:01:30;;;;;;;;;;;14.80;99.90;;;;;;5047200;28;20434;-72
2022/06/06 02:04:02;;;;;;;;;;;14.70;99.90;;;;;;5077449;28;19952;-73
2022/06/06 02:06:34;;;;;;;;;;;14.70;99.90;;;;;;5071309;28;19963;-72
2022/06/06 02:09:05;;;;;;;;;;;14.60;99.90;;;;;;5058212;28;19928;-73
2022/06/06 02:11:37;;;;;;;;;;;14.50;99.90;;;;;;5087087;28;19947;-72
2022/06/06 02:14:09;;;;;;;;;;;14.50;99.90;;;;;;5087836;28;19935;-72
2022/06/06 02:16:41;;;;;;;;;;;14.40;99.90;;;;;;5086295;28;20273;-72
2022/06/06 02:19:12;;;;;;;;;;;14.30;99.90;;;;;;5081898;28;19928;-72
2022/06/06 02:21:44;;;;;;;;;;;14.30;99.90;;;;;;5079936;28;19950;-73
2022/06/06 02:24:16;;;;;;;;;;;14.30;99.90;;;;;;5085713;28;19925;-72
2022/06/06 02:26:48;;;;;;;;;;;14.20;99.90;;;;;;5087294;28;19928;-73
2022/06/06 02:29:19;;;;;;;;;;;14.20;99.90;;;;;;5083327;28;19975;-72
2022/06/06 02:31:51;;;;;;;;;;;14.20;99.90;;;;;;5089059;28;19928;-73
2022/06/06 02:34:23;;;;;;;;;;;14.20;99.90;;;;;;5096942;28;20396;-72
2022/06/06 02:36:54;;;;;;;;;;;14.20;99.90;;;;;;5064670;28;19925;-72
2022/06/06 02:39:26;;;;;;;;;;;14.10;99.90;;;;;;5077853;28;19935;-72
2022/06/06 02:41:53;;;;;;;;;;;14.10;99.90;;;;;;5063401;28;19951;-72
2022/06/06 02:44:24;;;;;;;;;;;14.10;99.90;;;;;;5058074;28;19947;-74
2022/06/06 02:46:56;;;;;;;;;;;14.10;99.90;;;;;;5083901;28;19931;-73
2022/06/06 02:49:28;;;;;;;;;;;14.10;99.90;;;;;;5076956;28;19924;-72
2022/06/06 02:52:00;;;;;;;;;;;14.10;99.90;;;;;;5084447;28;19932;-72
2022/06/06 02:54:32;;;;;;;;;;;14.10;99.90;;;;;;5089061;28;19924;-72
2022/06/06 02:57:03;;;;;;;;;;;14.10;99.90;;;;;;5067668;28;19928;-72
2022/06/06 02:59:37;;;;;;;;;;;14.10;99.90;;;;;;5058203;28;20066;-73
2022/06/06 03:02:09;;;;;;;;;;;14.10;99.90;;;;;;5077604;28;19928;-73
2022/06/06 03:04:41;;;;;;;;;;;14.00;99.90;;;;;;5069413;28;19935;-72
2022/06/06 03:07:21;;;;;;;;;;;13.90;99.90;;;;;;5084318;28;20384;-72
2022/06/06 03:10:12;;;;;;;;;;;13.90;99.90;;;;;;5085163;28;19983;-73
2022/06/06 03:12:47;;;;;;;;;;;13.80;99.90;;;;;;5080628;28;19924;-72
2022/06/06 03:15:19;;;;;;;;;;;13.80;99.90;;;;;;5097771;28;19928;-73
2022/06/06 03:21:13;;;;;;;;;;;13.80;99.90;;;;;;5081865;28;19928;-72
2022/06/06 03:23:51;;;;;;;;;;;13.70;99.90;;;;;;5088579;28;20724;-73
2022/06/06 03:26:35;;;;;;;;;;;13.70;99.90;;;;;;5082792;28;19935;-73
2022/06/06 03:29:08;;;;;;;;;;;13.70;99.90;;;;;;5082750;28;19929;-73
2022/06/06 03:31:46;;;;;;;;;;;13.70;99.90;;;;;;5080023;28;19924;-72
2022/06/06 03:34:22;;;;;;;;;;;13.70;99.90;;;;;;5071667;28;19924;-72
2022/06/06 03:36:54;;;;;;;;;;;13.60;99.90;;;;;;5078081;28;19978;-72
2022/06/06 03:39:31;;;;;;;;;;;13.60;99.90;;;;;;5066865;28;19954;-72
2022/06/06 03:42:02;;;;;;;;;;;13.70;99.90;;;;;;5083563;28;19935;-72
2022/06/06 03:44:37;;;;;;;;;;;13.70;99.90;;;;;;5078160;28;19955;-73
2022/06/06 03:47:15;;;;;;;;;;;13.60;99.90;;;;;;5089895;28;20388;-72
2022/06/06 03:49:49;;;;;;;;;;;13.60;99.90;;;;;;5080206;28;19947;-73
2022/06/06 03:52:25;;;;;;;;;;;13.60;99.90;;;;;;5055359;28;20407;-72
2022/06/06 03:55:12;;;;;;;;;;;13.60;99.90;;;;;;5082775;28;20411;-72
2022/06/06 03:57:45;;;;;;;;;;;13.60;99.90;;;;;;5073332;28;19928;-72
2022/06/06 04:00:16;;;;;;;;;;;13.60;99.90;;;;;;5084419;28;20380;-72
2022/06/06 04:02:48;;;;;;;;;;;13.60;99.90;;;;;;5079730;28;19935;-72
2022/06/06 04:05:22;;;;;;;;;;;13.60;99.90;;;;;;5070977;28;19935;-72
2022/06/06 04:07:54;;;;;;;;;;;13.60;99.90;;;;;;5077942;28;20365;-72
2022/06/06 04:10:28;;;;;;;;;;;13.60;99.90;;;;;;5099910;27;19955;-73
2022/06/06 04:13:00;;;;;;;;;;;13.60;99.90;;;;;;5094968;28;19955;-73
2022/06/06 04:15:50;;;;;;;;;;;13.60;99.90;;;;;;5088147;28;19931;-72
2022/06/06 04:18:26;;;;;;;;;;;13.70;99.90;;;;;;5065303;28;20423;-72
2022/06/06 04:21:01;;;;;;;;;;;13.70;99.90;;;;;;5080283;28;19931;-72
2022/06/06 04:23:44;;;;;;;;;;;13.70;99.90;;;;;;5072024;28;19924;-73
2022/06/06 04:26:31;;;;;;;;;;;13.70;99.90;;;;;;5083893;28;19931;-72
2022/06/06 04:29:22;;;;;;;;;;;13.70;99.90;;;;;;5093979;28;19924;-71
2022/06/06 04:31:52;;;;;;;;;;;13.70;99.90;;;;;;5062358;28;20282;-73
2022/06/06 04:34:37;;;;;;;;;;;13.70;99.90;;;;;;5073794;28;20721;-73
2022/06/06 04:37:04;;;;;;;;;;;13.70;99.90;;;;;;5075771;28;20396;-73
2022/06/06 04:39:35;;;;;;;;;;;13.80;99.90;;;;;;5094629;28;19924;-72
2022/06/06 04:42:10;;;;;;;;;;;13.80;99.90;;;;;;5112204;28;19923;-72
2022/06/06 04:44:49;;;;;;;;;;;13.80;99.90;;;;;;5108465;28;19958;-72
2022/06/06 04:47:25;;;;;;;;;;;13.90;99.90;;;;;;5090593;28;20303;-72
2022/06/06 04:49:58;;;;;;;;;;;13.90;99.90;;;;;;5114864;28;19935;-72
2022/06/06 04:52:30;;;;;;;;;;;14.00;99.90;;;;;;5085401;28;19948;-72
2022/06/06 04:55:04;;;;;;;;;;;14.00;99.90;;;;;;5092094;28;19969;-72
2022/06/06 04:57:37;;;;;;;;;;;14.00;99.90;;;;;;5090299;28;20274;-72
2022/06/06 05:00:09;;;;;;;;;;;14.10;99.90;;;;;;5084172;28;19964;-72
2022/06/06 05:02:41;;;;;;;;;;;14.10;99.90;;;;;;5093622;28;20720;-71
2022/06/06 05:05:12;;;;;;;;;;;14.10;99.90;;;;;;5105153;28;19924;-72
2022/06/06 05:08:01;;;;;;;;;;;14.10;99.90;;;;;;5092755;28;19935;-72
2022/06/06 05:10:49;;;;;;;;;;;14.20;99.90;;;;;;5077383;28;19924;-72
2022/06/06 05:13:21;;;;;;;;;;;14.20;99.90;;;;;;5094938;28;19924;-72
2022/06/06 05:16:22;;;;;;;;;;;14.20;99.90;;;;;;5073215;28;19929;-72
2022/06/06 05:18:54;;;;;;;;;;;14.30;99.90;;;;;;5023442;28;20331;-73
2022/06/06 05:21:44;;;;;;;;;;;14.30;99.90;;;;;;5072473;28;19946;-72
2022/06/06 05:24:32;;;;;;;;;;;14.30;99.90;;;;;;5092896;28;19931;-72
2022/06/06 05:27:17;;;;;;;;;;;14.40;99.90;;;;;;5057542;28;19928;-73
2022/06/06 05:29:49;;;;;;;;;;;14.40;99.90;;;;;;5077068;28;19931;-73
2022/06/06 05:32:23;;;;;;;;;;;14.50;99.90;;;;;;5087153;28;19931;-73
2022/06/06 05:35:03;;;;;;;;;;;14.60;99.90;;;;;;5094380;28;19950;-73
2022/06/06 05:37:53;;;;;;;;;;;14.60;99.90;;;;;;5095292;28;19924;-72
2022/06/06 05:40:36;;;;;;;;;;;14.70;99.90;;;;;;5095304;28;20265;-72
2022/06/06 05:43:27;;;;;;;;;;;14.80;99.90;;;;;;5093121;28;19924;-72
2022/06/06 05:46:25;;;;;;;;;;;14.80;99.90;;;;;;5084575;28;19924;-72
2022/06/06 05:49:11;;;;;;;;;;;14.90;99.90;;;;;;5070488;28;19969;-72
2022/06/06 05:51:45;;;;;;;;;;;15.00;99.90;;;;;;5088824;28;19949;-72
2022/06/06 05:54:12;;;;;;;;;;;15.00;99.90;;;;;;5115294;28;20390;-72
2022/06/06 05:56:46;;;;;;;;;;;15.10;99.90;;;;;;5109945;28;20404;-73
2022/06/06 05:59:21;;;;;;;;;;;15.20;99.90;;;;;;5090673;28;19924;-72
2022/06/06 06:02:19;;;;;;;;;;;15.20;99.90;;;;;;5099689;28;19927;-73
2022/06/06 06:05:06;;;;;;;;;;;15.30;99.90;;;;;;5080597;28;19955;-73
2022/06/06 06:07:42;;;;;;;;;;;15.30;99.90;;;;;;5085173;28;19927;-73
2022/06/06 06:10:15;;;;;;;;;;;15.40;99.90;;;;;;5069736;28;19932;-72
2022/06/06 06:12:47;;;;;;;;;;;15.50;99.90;;;;;;5087531;28;19924;-72
2022/06/06 06:15:27;;;;;;;;;;;15.60;99.90;;;;;;5091200;28;19931;-72
2022/06/06 06:18:00;;;;;;;;;;;15.60;99.90;;;;;;5089837;28;20388;-72
2022/06/06 06:20:35;;;;;;;;;;;15.70;99.90;;;;;;5057237;28;19924;-73
2022/06/06 06:23:11;;;;;;;;;;;15.70;99.90;;;;;;5092084;28;19979;-73
2022/06/06 06:25:44;;;;;;;;;;;15.80;99.90;;;;;;5080328;28;20285;-73
2022/06/06 06:28:11;;;;;;;;;;;15.90;99.90;;;;;;5111384;27;19938;-73
2022/06/06 06:31:02;;;;;;;;;;;15.90;99.90;;;;;;5067181;28;19943;-72
2022/06/06 06:33:46;;;;;;;;;;;16.00;99.90;;;;;;5069325;28;20273;-73
2022/06/06 06:36:27;;;;;;;;;;;16.10;99.90;;;;;;5065134;28;19925;-73
2022/06/06 06:39:08;;;;;;;;;;;16.20;99.90;;;;;;5076286;28;19931;-73
2022/06/06 06:41:39;;;;;;;;;;;16.20;99.90;;;;;;5084223;28;19924;-73
2022/06/06 06:44:10;;;;;;;;;;;16.30;99.90;;;;;;5060161;28;20007;-73
2022/06/06 06:46:47;;;;;;;;;;;16.40;99.90;;;;;;5057905;28;19924;-73
2022/06/06 06:49:38;;;;;;;;;;;16.50;99.90;;;;;;5060568;28;19956;-73
2022/06/06 06:52:18;;;;;;;;;;;16.50;99.90;;;;;;5065813;28;19930;-73
2022/06/06 06:54:53;;;;;;;;;;;16.60;99.90;;;;;;5077200;28;20361;-73
2022/06/06 06:57:43;;;;;;;;;;;16.70;99.90;;;;;;5078077;28;20395;-74
2022/06/06 07:00:19;;;;;;;;;;;16.80;99.90;;;;;;5068281;28;20483;-73
2022/06/06 07:09:01;;;;;;;;;;;17.20;99.90;;;;;;5090467;28;20622;-74
2022/06/06 07:11:47;;;;;;;;;;;17.30;99.90;;;;;;5066661;28;20433;-73
2022/06/06 07:14:48;;;;;;;;;;;17.50;99.90;;;;;;5076499;28;19952;-73
2022/06/06 07:17:21;;;;;;;;;;;17.60;99.90;;;;;;5040662;28;19935;-73
2022/06/06 07:19:58;;;;;;;;;;;17.70;99.90;;;;;;5099197;28;19925;-73
2022/06/06 07:22:59;;;;;;;;;;;17.80;99.90;;;;;;5070775;28;19960;-73
2022/06/06 07:25:20;;;;;;;;;;;17.80;99.90;;;;;;5072612;28;19931;-74
2022/06/06 07:27:47;;;;;;;;;;;17.80;99.90;;;;;;5065653;28;19930;-74
2022/06/06 07:30:14;;;;;;;;;;;17.80;99.90;;;;;;5062603;28;19931;-74
2022/06/06 07:32:51;;;;;;;;;;;17.80;99.90;;;;;;5039404;28;20006;-74
2022/06/06 07:35:29;;;;;;;;;;;17.80;99.90;;;;;;5055190;28;19947;-73
2022/06/06 07:38:06;;;;;;;;;;;17.90;99.90;;;;;;5073098;28;20443;-74
2022/06/06 07:40:49;;;;;;;;;;;18.00;99.90;;;;;;5087788;28;19928;-74
2022/06/06 07:43:24;;;;;;;;;;;18.20;99.90;;;;;;5075325;28;20296;-73
2022/06/06 07:46:19;;;;;;;;;;;18.50;99.90;;;;;;5075254;28;19934;-74
2022/06/06 07:48:54;;;;;;;;;;;18.50;99.90;;;;;;5074759;28;19931;-73
2022/06/06 07:51:32;;;;;;;;;;;18.50;99.90;;;;;;5090675;28;19964;-74
2022/06/06 07:54:30;;;;;;;;;;;18.50;99.90;;;;;;5070562;28;19931;-73
2022/06/06 07:57:02;;;;;;;;;;;18.60;99.90;;;;;;5074711;28;19935;-74
2022/06/06 07:59:42;;;;;;;;;;;18.70;99.90;;;;;;5051276;28;20383;-74
2022/06/06 08:02:20;;;;;;;;;;;18.70;99.90;;;;;;5066059;28;19931;-75
2022/06/06 08:05:03;;;;;;;;;;;18.70;99.90;;;;;;5058255;28;19946;-74
2022/06/06 08:07:42;;;;;;;;;;;18.80;99.90;;;;;;5081347;28;19924;-74
2022/06/06 08:10:17;;;;;;;;;;;18.90;99.90;;;;;;5083326;28;19924;-74
2022/06/06 08:12:48;;;;;;;;;;;18.90;99.90;;;;;;5067855;28;19931;-74
2022/06/06 08:15:39;;;;;;;;;;;18.90;99.90;;;;;;5056572;28;19924;-74
2022/06/06 08:18:30;;;;;;;;;;;18.90;99.90;;;;;;5070667;28;19931;-74
2022/06/06 08:21:20;;;;;;;;;;;18.90;99.90;;;;;;5068686;28;20304;-74
2022/06/06 08:23:52;;;;;;;;;;;19.00;99.90;;;;;;5060012;28;19935;-74
2022/06/06 08:26:25;;;;;;;;;;;19.10;99.90;;;;;;5059524;28;19925;-74
2022/06/06 08:28:58;;;;;;;;;;;19.20;99.90;;;;;;5071812;28;19935;-73
2022/06/06 08:31:30;;;;;;;;;;;19.30;99.90;;;;;;5093389;28;20350;-74
2022/06/06 08:34:02;;;;;;;;;;;19.40;99.90;;;;;;5091062;28;20412;-74
2022/06/06 08:36:37;;;;;;;;;;;19.40;99.90;;;;;;5070394;28;19924;-73
2022/06/06 08:39:44;;;;;;;;;;;19.50;99.90;;;;;;5088180;28;19928;-74
2022/06/06 08:42:30;;;;;;;;;;;19.60;99.90;;;;;;5012228;28;19933;-74
2022/06/06 08:45:08;;;;;;;;;;;19.80;99.90;;;;;;5072587;28;20605;-74
2022/06/06 08:47:53;;;;;;;;;;;19.80;99.90;;;;;;5093811;28;19932;-74
2022/06/06 08:50:46;;;;;;;;;;;19.70;99.90;;;;;;5074707;28;19938;-74
2022/06/06 08:53:21;;;;;;;;;;;19.50;99.90;;;;;;5084451;28;20388;-74
2022/06/06 08:55:54;;;;;;;;;;;19.50;99.90;;;;;;5077864;28;19931;-74
2022/06/06 08:58:44;;;;;;;;;;;19.40;99.90;;;;;;5057929;28;19947;-74
2022/06/06 09:01:16;;;;;;;;;;;19.40;99.90;;;;;;5062069;28;19930;-74
2022/06/06 09:03:49;;;;;;;;;;;19.50;99.90;;;;;;5053456;28;19925;-74
2022/06/06 09:06:39;;;;;;;;;;;19.70;99.90;;;;;;5054042;28;19932;-74
2022/06/06 09:09:20;;;;;;;;;;;19.90;99.90;;;;;;5070135;28;19924;-74
2022/06/06 09:12:03;;;;;;;;;;;20.10;99.90;;;;;;5076130;28;20066;-74
2022/06/06 09:14:39;;;;;;;;;;;20.10;99.90;;;;;;5083268;28;19924;-74
2022/06/06 09:17:15;;;;;;;;;;;20.20;99.90;;;;;;5074341;28;19928;-73
2022/06/06 09:19:46;;;;;;;;;;;20.20;99.90;;;;;;5079001;28;19924;-74
2022/06/06 09:22:44;;;;;;;;;;;20.20;99.90;;;;;;5081459;28;19932;-74
2022/06/06 09:25:35;;;;;;;;;;;20.20;99.90;;;;;;5056448;28;19928;-74
2022/06/06 09:28:25;;;;;;;;;;;20.30;99.90;;;;;;5088189;28;20304;-74
2022/06/06 09:31:16;;;;;;;;;;;20.60;99.90;;;;;;5083244;28;19924;-74
2022/06/06 09:34:03;;;;;;;;;;;20.70;99.90;;;;;;5069442;28;19930;-73
2022/06/06 09:36:44;;;;;;;;;;;20.80;99.90;;;;;;5085901;28;19935;-74
2022/06/06 09:39:25;;;;;;;;;;;20.80;99.90;;;;;;5071271;28;20300;-74
2022/06/06 09:42:17;;;;;;;;;;;20.70;99.90;;;;;;5082951;28;19932;-74
2022/06/06 09:45:01;;;;;;;;;;;20.50;99.90;;;;;;5066349;28;19962;-73
2022/06/06 09:47:42;;;;;;;;;;;20.50;99.90;;;;;;5064737;28;19928;-73
2022/06/06 09:50:13;;;;;;;;;;;20.60;99.90;;;;;;5085629;28;19971;-74
2022/06/06 09:52:48;;;;;;;;;;;20.90;99.90;;;;;;5084945;28;20007;-73
2022/06/06 10:01:18;;;;;;;;;;;21.20;99.90;;;;;;5079352;28;20377;-74
2022/06/06 10:03:53;;;;;;;;;;;21.30;99.90;;;;;;5061779;28;19931;-73
2022/06/06 10:06:57;;;;;;;;;;;21.40;99.90;;;;;;5084170;28;19924;-74
2022/06/06 10:09:48;;;;;;;;;;;21.60;99.90;;;;;;5054837;28;20528;-73
2022/06/06 10:12:25;;;;;;;;;;;21.60;99.90;;;;;;5076636;28;20019;-74
2022/06/06 10:15:16;;;;;;;;;;;21.80;99.90;;;;;;5066228;28;20026;-74
2022/06/06 10:17:50;;;;;;;;;;;21.80;99.90;;;;;;5079520;28;19927;-74
2022/06/06 10:20:29;;;;;;;;;;;21.90;99.90;;;;;;5083750;28;19928;-73
2022/06/06 10:23:03;;;;;;;;;;;21.90;99.90;;;;;;5073435;28;20024;-73
2022/06/06 10:25:56;;;;;;;;;;;21.90;99.90;;;;;;5081184;28;19924;-74
2022/06/06 10:28:28;;;;;;;;;;;22.00;99.90;;;;;;5077132;28;19939;-72
2022/06/06 10:31:00;;;;;;;;;;;22.00;99.90;;;;;;5090619;28;20435;-73
2022/06/06 10:33:31;;;;;;;;;;;22.00;99.90;;;;;;5094201;28;19924;-73
2022/06/06 10:36:22;;;;;;;;;;;22.00;99.90;;;;;;5077316;28;20399;-73
2022/06/06 10:39:09;;;;;;;;;;;22.10;99.90;;;;;;5060580;28;20370;-73
2022/06/06 10:41:43;;;;;;;;;;;22.00;99.90;;;;;;5073011;28;19925;-73
2022/06/06 10:44:18;;;;;;;;;;;22.20;99.90;;;;;;5066930;28;19971;-73
2022/06/06 10:47:08;;;;;;;;;;;22.30;99.90;;;;;;5090372;28;20419;-73
2022/06/06 10:49:46;;;;;;;;;;;22.40;99.90;;;;;;5081634;28;19925;-72
2022/06/06 10:52:20;;;;;;;;;;;22.30;99.90;;;;;;5076856;28;19931;-73
2022/06/06 10:55:10;;;;;;;;;;;22.30;99.90;;;;;;5081873;28;19925;-73
2022/06/06 10:58:12;;;;;;;;;;;22.30;99.90;;;;;;5058362;28;19925;-72
2022/06/06 11:00:44;;;;;;;;;;;22.30;99.90;;;;;;5064901;28;19932;-73
2022/06/06 11:03:21;;;;;;;;;;;22.40;99.90;;;;;;5074140;28;20405;-74
2022/06/06 11:06:12;;;;;;;;;;;22.50;99.90;;;;;;5091252;28;19963;-73
2022/06/06 11:08:50;;;;;;;;;;;22.50;99.90;;;;;;5074156;28;19949;-72
2022/06/06 11:11:25;;;;;;;;;;;22.30;99.90;;;;;;5072407;28;19985;-73
2022/06/06 11:14:15;;;;;;;;;;;22.30;99.90;;;;;;5056086;28;20031;-74
2022/06/06 11:17:04;;;;;;;;;;;22.40;99.90;;;;;;5060716;28;19930;-73
2022/06/06 11:19:45;;;;;;;;;;;22.70;99.90;;;;;;5093570;28;19924;-72
2022/06/06 11:22:23;;;;;;;;;;;23.10;99.90;;;;;;5088650;28;19930;-73
2022/06/06 11:25:11;;;;;;;;;;;23.20;99.90;;;;;;5093336;28;19928;-73
2022/06/06 11:28:02;;;;;;;;;;;23.00;99.90;;;;;;5092656;28;19931;-73
2022/06/06 11:30:47;;;;;;;;;;;22.90;99.90;;;;;;5113494;28;19945;-72
2022/06/06 11:33:28;;;;;;;;;;;23.10;99.90;;;;;;5094621;28;20492;-73
2022/06/06 11:36:12;;;;;;;;;;;23.20;99.90;;;;;;5077425;28;19924;-74
2022/06/06 11:38:47;;;;;;;;;;;23.20;99.90;;;;;;5092772;28;19924;-73
2022/06/06 11:41:24;;;;;;;;;;;23.10;99.90;;;;;;5074545;28;19936;-73
2022/06/06 11:44:11;;;;;;;;;;;23.20;99.90;;;;;;5090237;28;19928;-73
2022/06/06 11:46:57;;;;;;;;;;;23.10;99.90;;;;;;5087809;28;19930;-73
2022/06/06 11:49:29;;;;;;;;;;;23.20;99.90;;;;;;5080223;28;19960;-73
2022/06/06 11:52:19;;;;;;;;;;;23.30;99.90;;;;;;5092029;28;19930;-73
2022/06/06 11:55:09;;;;;;;;;;;23.50;99.90;;;;;;5089523;28;19924;-72
2022/06/06 11:58:16;;;;;;;;;;;23.50;99.90;;;;;;5056343;28;19925;-72
2022/06/06 12:00:56;;;;;;;;;;;23.70;99.90;;;;;;5014036;28;19932;-73
2022/06/06 12:03:46;;;;;;;;;;;23.70;99.90;;;;;;5080759;28;19924;-73
2022/06/06 12:06:21;;;;;;;;;;;23.70;99.90;;;;;;5092301;28;20073;-73
2022/06/06 12:08:58;;;;;;;;;;;23.70;99.90;;;;;;5086237;28;19925;-73
2022/06/06 12:11:48;;;;;;;;;;;23.50;99.90;;;;;;5091843;28;19964;-73
2022/06/06 12:14:39;;;;;;;;;;;23.60;99.90;;;;;;5055188;28;19924;-73
2022/06/06 12:17:10;;;;;;;;;;;23.80;99.90;;;;;;5093356;28;20010;-74
2022/06/06 12:19:54;;;;;;;;;;;23.80;99.90;;;;;;5097850;28;19924;-72
2022/06/06 12:22:42;;;;;;;;;;;23.80;99.90;;;;;;5052786;28;19924;-72
2022/06/06 12:25:32;;;;;;;;;;;23.90;99.90;;;;;;5065855;28;19970;-72
2022/06/06 12:28:04;;;;;;;;;;;23.70;99.90;;;;;;5085736;28;20281;-72
2022/06/06 12:30:42;;;;;;;;;;;23.70;99.90;;;;;;5076296;28;19935;-72
2022/06/06 12:33:18;;;;;;;;;;;23.90;99.90;;;;;;5092983;28;19929;-72
2022/06/06 12:35:50;;;;;;;;;;;24.00;99.90;;;;;;5091419;28;19931;-72
2022/06/06 12:38:26;;;;;;;;;;;24.00;99.90;;;;;;5069623;28;19930;-72
2022/06/06 12:41:04;;;;;;;;;;;23.90;99.90;;;;;;5081835;28;20013;-72
2022/06/06 12:43:44;;;;;;;;;;;23.80;99.90;;;;;;5081022;28;20279;-72
2022/06/06 12:46:16;;;;;;;;;;;23.90;99.90;;;;;;5088772;28;19924;-72
2022/06/06 12:49:14;;;;;;;;;;;24.00;99.90;;;;;;5085133;28;19947;-72
2022/06/06 12:51:56;;;;;;;;;;;24.20;99.90;;;;;;5072788;28;19930;-72
2022/06/06 12:57:44;;;;;;;;;;;24.60;99.90;;;;;;5059738;28;20289;-72
2022/06/06 13:00:18;;;;;;;;;;;24.50;99.90;;;;;;5066389;28;19924;-72
2022/06/06 13:02:49;;;;;;;;;;;24.30;99.90;;;;;;5080360;28;19935;-72
2022/06/06 13:05:30;;;;;;;;;;;24.20;99.90;;;;;;5081598;28;20389;-72
2022/06/06 13:08:16;;;;;;;;;;;24.50;99.90;;;;;;5081409;28;19924;-72
2022/06/06 13:11:00;;;;;;;;;;;24.50;99.90;;;;;;5061192;28;19924;-72
2022/06/06 13:13:47;;;;;;;;;;;24.40;99.90;;;;;;5059713;28;20003;-72
2022/06/06 13:16:26;;;;;;;;;;;24.20;99.90;;;;;;5069156;28;19924;-72
2022/06/06 13:19:05;;;;;;;;;;;24.20;99.90;;;;;;5085332;28;19931;-72
2022/06/06 13:21:46;;;;;;;;;;;24.10;99.90;;;;;;5061429;28;19925;-72
2022/06/06 13:24:30;;;;;;;;;;;24.00;99.90;;;;;;5066324;28;19924;-72
2022/06/06 13:27:22;;;;;;;;;;;23.90;99.90;;;;;;5087662;28;19925;-72
2022/06/06 13:29:54;;;;;;;;;;;24.00;99.90;;;;;;5086168;28;19933;-71
2022/06/06 13:32:28;;;;;;;;;;;24.10;99.90;;;;;;5068886;28;19964;-72
2022/06/06 13:35:19;;;;;;;;;;;24.20;99.90;;;;;;5107339;28;19924;-72
2022/06/06 13:37:58;;;;;;;;;;;24.30;99.90;;;;;;5064624;28;20277;-72
2022/06/06 13:40:47;;;;;;;;;;;24.30;99.90;;;;;;5070843;28;19925;-72
2022/06/06 13:43:41;;;;;;;;;;;24.20;99.90;;;;;;5074224;28;20285;-72
2022/06/06 13:46:33;;;;;;;;;;;24.30;99.90;;;;;;5073975;28;19929;-72
2022/06/06 13:49:23;;;;;;;;;;;24.30;99.90;;;;;;5089355;28;20384;-72
2022/06/06 13:52:04;;;;;;;;;;;24.30;99.90;;;;;;5067911;28;20319;-72
2022/06/06 13:54:37;;;;;;;;;;;24.30;99.90;;;;;;5078952;28;20398;-72
2022/06/06 13:57:14;;;;;;;;;;;24.40;99.90;;;;;;5086662;28;19928;-72
2022/06/06 14:00:00;;;;;;;;;;;24.40;99.90;;;;;;5078935;28;20014;-72
2022/06/06 14:02:36;;;;;;;;;;;24.30;99.90;;;;;;5080154;28;19935;-72
2022/06/06 14:05:26;;;;;;;;;;;24.30;99.90;;;;;;5071643;28;19928;-72
2022/06/06 14:08:07;;;;;;;;;;;24.10;99.90;;;;;;5078755;28;19924;-72
2022/06/06 14:10:44;;;;;;;;;;;24.20;99.90;;;;;;5085847;28;19924;-73
2022/06/06 14:13:16;;;;;;;;;;;24.60;99.90;;;;;;5080899;28;19924;-72
2022/06/06 14:15:48;;;;;;;;;;;25.20;99.90;;;;;;5088939;28;19928;-72
2022/06/06 14:18:31;;;;;;;;;;;25.50;99.60;;;;;;5081918;28;20385;-72
2022/06/06 14:21:03;;;;;;;;;;;26.00;99.70;;;;;;5080497;28;19935;-72
2022/06/06 14:23:35;;;;;;;;;;;26.00;99.20;;;;;;5067495;28;19935;-72
2022/06/06 14:26:11;;;;;;;;;;;25.90;99.40;;;;;;5069279;28;19931;-72
2022/06/06 14:28:43;;;;;;;;;;;25.60;98.80;;;;;;5084415;28;19928;-72
2022/06/06 14:31:19;;;;;;;;;;;25.80;98.30;;;;;;5069318;28;20014;-72
2022/06/06 14:33:58;;;;;;;;;;;25.70;97.10;;;;;;5082505;28;20331;-72
2022/06/06 14:36:30;;;;;;;;;;;25.70;97.80;;;;;;5080494;28;19942;-73
2022/06/06 14:39:03;;;;;;;;;;;25.90;98.00;;;;;;5064604;28;19925;-72
2022/06/06 14:41:39;;;;;;;;;;;26.30;96.80;;;;;;5067845;28;20005;-72
2022/06/06 14:44:11;;;;;;;;;;;26.30;96.40;;;;;;5074101;28;19971;-72
2022/06/06 14:46:44;;;;;;;;;;;26.50;96.40;;;;;;5079042;28;19932;-72
2022/06/06 14:49:27;;;;;;;;;;;26.80;94.90;;;;;;5079594;28;19924;-72
2022/06/06 14:52:06;;;;;;;;;;;26.90;93.70;;;;;;5085029;28;20012;-73
2022/06/06 14:54:39;;;;;;;;;;;27.20;93.30;;;;;;5089992;28;19970;-72
2022/06/06 14:57:12;;;;;;;;;;;27.30;94.00;;;;;;5090430;28;19934;-72
2022/06/06 14:59:49;;;;;;;;;;;27.30;92.20;;;;;;5090679;28;20292;-72
2022/06/06 15:02:25;;;;;;;;;;;27.70;93.40;;;;;;5091452;28;19924;-72
2022/06/06 15:05:15;;;;;;;;;;;28.10;91.60;;;;;;5073469;28;19930;-73
2022/06/06 15:07:53;;;;;;;;;;;28.20;91.20;;;;;;5091420;28;20481;-73
2022/06/06 15:10:37;;;;;;;;;;;27.80;91.80;;;;;;5089003;28;19932;-72
2022/06/06 15:13:09;;;;;;;;;;;27.30;91.20;;;;;;5091597;28;19924;-72
2022/06/06 15:15:42;;;;;;;;;;;27.00;92.00;;;;;;5073207;28;19925;-72
2022/06/06 15:18:22;;;;;;;;;;;26.90;92.90;;;;;;5088809;28;20383;-72
2022/06/06 15:20:54;;;;;;;;;;;27.20;91.30;;;;;;5089411;28;20322;-72
2022/06/06 15:23:28;;;;;;;;;;;27.20;90.30;;;;;;5087675;28;19935;-72
2022/06/06 15:25:59;;;;;;;;;;;27.50;90.80;;;;;;5072513;28;19947;-73
2022/06/06 15:28:34;;;;;;;;;;;28.00;91.30;;;;;;5069534;28;19924;-72
2022/06/06 15:31:06;;;;;;;;;;;28.20;89.00;;;;;;5087912;28;20510;-73
2022/06/06 15:33:45;;;;;;;;;;;28.60;89.50;;;;;;5088531;28;19928;-72
2022/06/06 15:36:30;;;;;;;;;;;28.70;86.70;;;;;;5073203;28;20016;-73
2022/06/06 15:39:12;;;;;;;;;;;28.70;86.90;;;;;;5070991;28;19931;-72
2022/06/06 15:41:43;;;;;;;;;;;28.40;86.20;;;;;;5086758;28;19928;-72